createdAt,value
2018-03-31T00:00:03.902Z,30.13
2018-03-31T00:02:31.137Z,16.73
2018-03-31T00:04:57.716Z,16.57
2018-03-31T00:07:24.265Z,15.77
2018-03-31T00:09:50.886Z,15.87
2018-03-31T00:12:17.424Z,15.57
2018-03-31T00:27:43.954Z,17.77
2018-03-31T00:30:10.534Z,37.23
2018-03-31T00:32:37.158Z,26.03
2018-03-31T00:35:03.709Z,20.53
2018-03-31T00:37:30.209Z,20.20
2018-03-31T00:39:56.869Z,19.40
2018-03-31T00:42:23.509Z,19.67
2018-03-31T00:44:50.041Z,21.03
2018-03-31T00:47:17.364Z,20.87
2018-03-31T00:49:43.979Z,20.13
2018-03-31T00:52:10.639Z,20.30
2018-03-31T00:54:37.748Z,19.90
2018-03-31T00:57:04.366Z,18.33
2018-03-31T00:59:31.541Z,18.97
2018-03-31T01:01:58.901Z,18.27
2018-03-31T01:04:25.516Z,18.57
2018-03-31T01:06:52.060Z,19.33
2018-03-31T01:09:18.707Z,18.43
2018-03-31T01:11:45.863Z,21.93
2018-03-31T01:14:13.057Z,19.23
2018-03-31T01:16:39.544Z,20.80
2018-03-31T01:19:06.865Z,17.53
2018-03-31T01:21:33.407Z,17.77
2018-03-31T01:24:00.601Z,16.63
2018-03-31T01:26:27.489Z,17.03
2018-03-31T01:28:54.044Z,16.83
2018-03-31T01:31:20.584Z,17.30
2018-03-31T01:33:47.124Z,18.60
2018-03-31T01:36:13.628Z,18.30
2018-03-31T01:38:40.193Z,17.87
2018-03-31T01:41:06.735Z,20.07
2018-03-31T01:43:33.325Z,17.87
2018-03-31T01:45:59.988Z,18.47
2018-03-31T01:48:26.920Z,19.33
2018-03-31T01:50:54.076Z,17.53
2018-03-31T01:53:21.427Z,17.57
2018-03-31T01:55:47.999Z,18.17
2018-03-31T01:58:15.348Z,17.50
2018-03-31T02:00:41.876Z,18.20
2018-03-31T02:03:08.396Z,18.83
2018-03-31T02:05:35.006Z,17.77
2018-03-31T02:08:01.626Z,17.83
2018-03-31T02:10:28.178Z,18.03
2018-03-31T02:12:54.740Z,18.50
2018-03-31T02:15:22.333Z,18.03
2018-03-31T02:17:48.874Z,19.20
2018-03-31T02:20:16.380Z,19.10
2018-03-31T02:22:42.948Z,17.67
2018-03-31T02:25:09.985Z,18.43
2018-03-31T02:27:37.192Z,19.17
2018-03-31T02:30:03.705Z,18.27
2018-03-31T02:32:30.311Z,19.07
2018-03-31T02:34:56.899Z,18.53
2018-03-31T02:37:23.437Z,19.67
2018-03-31T02:39:49.995Z,19.13
2018-03-31T02:42:17.261Z,18.70
2018-03-31T02:44:46.312Z,19.67
2018-03-31T02:47:13.656Z,20.47
2018-03-31T02:49:40.225Z,18.47
2018-03-31T02:52:06.821Z,18.97
2018-03-31T02:54:34.307Z,18.40
2018-03-31T02:57:01.048Z,18.87
2018-03-31T02:59:29.333Z,19.10
2018-03-31T03:01:55.916Z,18.23
2018-03-31T03:04:23.274Z,19.90
2018-03-31T03:06:49.933Z,19.17
2018-03-31T03:09:16.453Z,20.10
2018-03-31T03:11:43.055Z,18.23
2018-03-31T03:14:09.573Z,19.27
2018-03-31T03:16:36.455Z,20.30
2018-03-31T03:19:03.823Z,18.37
2018-03-31T03:21:30.474Z,18.53
2018-03-31T03:23:57.032Z,20.33
2018-03-31T03:26:23.596Z,19.97
2018-03-31T03:28:50.143Z,16.97
2018-03-31T03:31:16.684Z,19.80
2018-03-31T03:33:43.236Z,17.87
2018-03-31T03:36:09.807Z,17.07
2018-03-31T03:38:36.339Z,17.80
2018-03-31T03:41:03.813Z,17.83
2018-03-31T03:43:31.348Z,19.03
2018-03-31T03:45:57.900Z,18.73
2018-03-31T03:48:24.462Z,18.40
2018-03-31T03:50:51.002Z,18.47
2018-03-31T03:53:17.597Z,17.17
2018-03-31T03:55:44.184Z,17.83
2018-03-31T03:58:10.763Z,17.20
2018-03-31T04:00:37.855Z,16.07
2018-03-31T04:03:04.376Z,16.30
2018-03-31T04:05:31.714Z,17.13
2018-03-31T04:07:58.217Z,16.97
2018-03-31T04:10:24.764Z,15.40
2018-03-31T04:12:52.100Z,15.47
2018-03-31T04:15:18.621Z,16.80
2018-03-31T04:17:45.155Z,17.60
2018-03-31T04:20:12.707Z,15.87
2018-03-31T04:22:39.772Z,17.53
2018-03-31T04:25:06.309Z,17.83
2018-03-31T04:27:32.825Z,17.53
2018-03-31T04:29:59.348Z,16.87
2018-03-31T04:32:25.986Z,17.47
2018-03-31T04:34:52.572Z,18.07
2018-03-31T04:37:19.264Z,17.07
2018-03-31T04:39:45.928Z,17.53
2018-03-31T04:42:13.250Z,16.63
2018-03-31T04:44:40.470Z,18.67
2018-03-31T04:47:07.074Z,16.70
2018-03-31T04:49:34.273Z,17.47
2018-03-31T04:52:00.900Z,18.13
2018-03-31T04:54:27.662Z,16.70
2018-03-31T04:56:54.901Z,17.97
2018-03-31T04:59:22.176Z,19.37
2018-03-31T05:01:48.835Z,19.07
2018-03-31T05:04:15.780Z,19.67
2018-03-31T05:06:42.763Z,19.13
2018-03-31T05:09:09.309Z,20.60
2018-03-31T05:11:35.925Z,21.53
2018-03-31T05:14:02.452Z,20.97
2018-03-31T05:16:29.045Z,21.17
2018-03-31T05:18:55.703Z,22.37
2018-03-31T05:21:22.538Z,22.27
2018-03-31T05:23:49.069Z,22.80
2018-03-31T05:26:15.723Z,21.63
2018-03-31T05:28:42.280Z,21.87
2018-03-31T05:31:08.899Z,21.63
2018-03-31T05:33:36.386Z,21.90
2018-03-31T05:36:03.666Z,21.03
2018-03-31T05:38:30.316Z,21.40
2018-03-31T05:40:56.892Z,22.23
2018-03-31T05:43:23.498Z,22.80
2018-03-31T05:45:50.835Z,23.10
2018-03-31T05:48:17.425Z,22.20
2018-03-31T05:50:44.002Z,23.40
2018-03-31T05:53:11.608Z,23.33
2018-03-31T05:55:38.253Z,23.70
2018-03-31T05:58:05.570Z,22.73
2018-03-31T06:00:32.185Z,21.83
2018-03-31T06:02:58.919Z,23.37
2018-03-31T06:05:25.460Z,24.27
2018-03-31T06:07:52.377Z,23.73
2018-03-31T06:10:18.888Z,21.87
2018-03-31T06:12:45.878Z,22.30
2018-03-31T06:15:12.497Z,22.53
2018-03-31T06:17:39.110Z,23.57
2018-03-31T06:20:05.640Z,22.43
2018-03-31T06:22:33.085Z,22.97
2018-03-31T06:24:59.692Z,22.43
2018-03-31T06:27:26.412Z,22.50
2018-03-31T06:29:53.006Z,23.63
2018-03-31T06:32:19.628Z,23.23
2018-03-31T06:34:46.509Z,22.20
2018-03-31T06:37:13.128Z,24.27
2018-03-31T06:39:39.710Z,22.67
2018-03-31T06:42:06.255Z,22.77
2018-03-31T06:44:32.837Z,22.90
2018-03-31T06:47:01.764Z,23.23
2018-03-31T06:49:28.386Z,23.70
2018-03-31T06:51:54.942Z,25.87
2018-03-31T06:54:22.220Z,23.07
2018-03-31T06:56:49.257Z,23.07
2018-03-31T06:59:16.090Z,22.43
2018-03-31T07:01:42.838Z,24.13
2018-03-31T07:04:09.449Z,23.83
2018-03-31T07:06:36.705Z,24.63
2018-03-31T07:09:03.239Z,24.83
2018-03-31T07:11:31.009Z,27.87
2018-03-31T07:13:57.610Z,25.60
2018-03-31T07:16:24.902Z,23.63
2018-03-31T07:18:51.456Z,24.13
2018-03-31T07:21:17.965Z,25.30
2018-03-31T07:23:44.495Z,25.33
2018-03-31T07:26:11.808Z,24.80
2018-03-31T07:28:44.326Z,26.20
2018-03-31T07:31:10.954Z,23.47
2018-03-31T07:33:37.477Z,24.13
2018-03-31T07:36:04.026Z,24.67
2018-03-31T07:38:30.589Z,23.00
2018-03-31T07:40:57.162Z,25.27
2018-03-31T07:43:23.742Z,23.93
2018-03-31T07:45:50.432Z,24.33
2018-03-31T07:48:17.368Z,24.47
2018-03-31T07:50:43.908Z,24.40
2018-03-31T07:53:10.455Z,24.63
2018-03-31T07:55:37.652Z,25.23
2018-03-31T07:58:04.288Z,24.23
2018-03-31T08:00:30.820Z,22.80
2018-03-31T08:02:58.363Z,23.00
2018-03-31T08:05:24.925Z,25.47
2018-03-31T08:07:51.565Z,24.30
2018-03-31T08:10:18.704Z,22.70
2018-03-31T08:12:45.372Z,23.60
2018-03-31T08:15:11.978Z,24.93
2018-03-31T08:17:38.606Z,24.53
2018-03-31T08:20:05.774Z,24.33
2018-03-31T08:22:32.316Z,23.13
2018-03-31T08:24:58.932Z,23.47
2018-03-31T08:27:25.489Z,24.57
2018-03-31T08:29:52.038Z,24.00
2018-03-31T08:32:18.626Z,24.27
2018-03-31T08:34:45.217Z,22.87
2018-03-31T08:37:11.779Z,22.83
2018-03-31T08:39:38.315Z,22.30
2018-03-31T08:42:05.652Z,23.00
2018-03-31T08:44:32.240Z,22.20
2018-03-31T08:46:58.772Z,22.23
2018-03-31T08:49:25.346Z,22.97
2018-03-31T08:51:51.901Z,22.97
2018-03-31T08:54:19.700Z,24.03
2018-03-31T08:56:46.280Z,24.40
2018-03-31T08:59:12.812Z,24.60
2018-03-31T09:01:39.341Z,25.93
2018-03-31T09:04:05.996Z,24.90
2018-03-31T09:06:32.541Z,25.07
2018-03-31T09:08:59.083Z,31.60
2018-03-31T09:11:25.576Z,52.40
2018-03-31T09:13:52.222Z,107.03
2018-03-31T09:16:18.770Z,31.87
2018-03-31T09:18:45.288Z,80.07
2018-03-31T09:21:11.990Z,71.07
2018-03-31T09:23:38.501Z,51.07
2018-03-31T09:26:05.049Z,53.70
2018-03-31T09:28:31.575Z,46.10
2018-03-31T09:30:58.137Z,30.53
2018-03-31T09:33:24.647Z,28.23
2018-03-31T09:35:51.153Z,28.93
2018-03-31T09:38:17.696Z,35.00
2018-03-31T09:40:44.209Z,25.90
2018-03-31T09:43:10.843Z,24.57
2018-03-31T09:45:37.362Z,25.97
2018-03-31T09:48:03.891Z,22.20
2018-03-31T09:50:30.994Z,22.50
2018-03-31T09:52:57.569Z,21.87
2018-03-31T09:55:24.105Z,22.17
2018-03-31T09:57:50.656Z,22.40
2018-03-31T10:00:17.201Z,48.37
2018-03-31T10:02:43.756Z,26.97
2018-03-31T10:05:10.292Z,29.20
2018-03-31T10:07:36.817Z,29.30
2018-03-31T10:10:03.363Z,28.53
2018-03-31T10:12:29.904Z,26.80
2018-03-31T10:14:56.477Z,26.93
2018-03-31T10:17:22.988Z,27.47
2018-03-31T10:19:49.517Z,25.77
2018-03-31T10:22:16.018Z,26.43
2018-03-31T10:24:42.593Z,26.00
2018-03-31T10:27:09.190Z,26.50
2018-03-31T10:29:35.721Z,25.73
2018-03-31T10:32:02.247Z,26.30
2018-03-31T10:34:28.821Z,25.03
2018-03-31T10:36:55.420Z,29.00
2018-03-31T10:39:21.944Z,27.03
2018-03-31T10:41:48.497Z,28.43
2018-03-31T10:44:15.045Z,36.77
2018-03-31T10:46:41.575Z,27.93
2018-03-31T10:49:08.172Z,27.47
2018-03-31T10:51:34.716Z,28.30
2018-03-31T10:54:01.281Z,29.03
2018-03-31T10:56:27.792Z,29.47
2018-03-31T10:58:54.352Z,28.40
2018-03-31T11:01:20.899Z,29.93
2018-03-31T11:03:47.498Z,30.30
2018-03-31T11:06:14.024Z,34.87
2018-03-31T11:08:40.577Z,36.13
2018-03-31T11:11:07.226Z,35.83
2018-03-31T11:13:33.802Z,37.20
2018-03-31T11:16:00.408Z,29.13
2018-03-31T11:18:27.006Z,35.77
2018-03-31T11:20:53.590Z,29.43
2018-03-31T11:23:20.134Z,27.73
2018-03-31T11:25:46.702Z,26.37
2018-03-31T11:28:13.219Z,30.60
2018-03-31T11:30:39.760Z,43.30
2018-03-31T11:33:06.280Z,33.97
2018-03-31T11:35:32.793Z,39.60
2018-03-31T11:37:59.376Z,43.53
2018-03-31T11:40:25.923Z,33.63
2018-03-31T11:42:52.444Z,36.30
2018-03-31T11:45:18.989Z,32.93
2018-03-31T11:47:45.492Z,38.13
2018-03-31T11:50:12.107Z,50.97
2018-03-31T11:52:38.646Z,36.17
2018-03-31T11:55:05.448Z,35.90
2018-03-31T11:57:31.981Z,32.17
2018-03-31T11:59:58.541Z,33.63
2018-03-31T12:02:25.083Z,29.77
2018-03-31T12:04:51.604Z,30.37
2018-03-31T12:07:18.166Z,31.80
2018-03-31T12:09:46.516Z,32.60
2018-03-31T12:12:13.052Z,33.57
2018-03-31T12:14:39.598Z,51.23
2018-03-31T12:17:06.142Z,74.00
2018-03-31T12:19:32.704Z,36.30
2018-03-31T12:21:59.239Z,32.67
2018-03-31T12:24:25.868Z,30.23
2018-03-31T12:26:52.438Z,29.47
2018-03-31T12:29:19.044Z,30.63
2018-03-31T12:31:45.629Z,28.90
2018-03-31T12:34:12.213Z,31.03
2018-03-31T12:36:38.754Z,32.47
2018-03-31T12:39:05.311Z,30.40
2018-03-31T12:41:31.812Z,32.23
2018-03-31T12:43:58.359Z,32.90
2018-03-31T12:46:25.077Z,37.33
2018-03-31T12:48:51.661Z,33.07
2018-03-31T12:51:18.289Z,32.63
2018-03-31T12:53:44.867Z,34.13
2018-03-31T12:56:11.696Z,30.90
2018-03-31T12:58:38.223Z,35.53
2018-03-31T13:01:04.752Z,32.23
2018-03-31T13:03:31.344Z,44.43
2018-03-31T13:05:57.935Z,32.90
2018-03-31T13:08:24.503Z,47.60
2018-03-31T13:10:51.041Z,32.30
2018-03-31T13:13:17.653Z,32.57
2018-03-31T13:15:44.208Z,33.73
2018-03-31T13:18:10.788Z,33.30
2018-03-31T13:20:37.374Z,32.53
2018-03-31T13:23:03.990Z,34.97
2018-03-31T13:25:30.685Z,32.53
2018-03-31T13:27:57.296Z,36.20
2018-03-31T13:30:23.898Z,34.57
2018-03-31T13:32:50.472Z,35.83
2018-03-31T13:35:17.027Z,33.00
2018-03-31T13:37:43.682Z,32.37
2018-03-31T13:40:10.254Z,33.07
2018-03-31T13:42:36.833Z,33.47
2018-03-31T13:45:03.418Z,33.40
2018-03-31T13:47:29.954Z,32.00
2018-03-31T13:49:56.513Z,35.03
2018-03-31T13:52:23.058Z,36.37
2018-03-31T13:54:49.539Z,34.80
2018-03-31T13:57:16.068Z,38.03
2018-03-31T13:59:42.605Z,36.87
2018-03-31T14:02:09.133Z,38.13
2018-03-31T14:04:35.644Z,39.07
2018-03-31T14:07:02.210Z,36.23
2018-03-31T14:09:28.789Z,36.53
2018-03-31T14:11:55.321Z,34.97
2018-03-31T14:14:21.849Z,35.27
2018-03-31T14:16:48.420Z,37.60
2018-03-31T14:19:14.944Z,36.03
2018-03-31T14:21:41.530Z,37.87
2018-03-31T14:24:08.097Z,36.57
2018-03-31T14:26:34.698Z,36.20
2018-03-31T14:29:01.249Z,40.87
2018-03-31T14:31:27.796Z,38.73
2018-03-31T14:33:54.332Z,36.40
2018-03-31T14:36:20.867Z,39.37
2018-03-31T14:38:47.441Z,41.50
2018-03-31T14:41:14.097Z,39.83
2018-03-31T14:43:40.596Z,40.93
2018-03-31T14:46:07.172Z,38.33
2018-03-31T14:48:33.700Z,38.00
2018-03-31T14:51:00.253Z,36.00
2018-03-31T14:53:26.796Z,32.83
2018-03-31T14:55:53.350Z,37.53
2018-03-31T14:58:19.905Z,38.13
2018-03-31T15:00:46.524Z,40.83
2018-03-31T15:03:13.035Z,42.23
2018-03-31T15:05:39.591Z,43.37
2018-03-31T15:08:06.143Z,48.73
2018-03-31T15:10:32.857Z,48.07
2018-03-31T15:12:59.355Z,38.77
2018-03-31T15:15:25.909Z,66.73
2018-03-31T15:17:52.426Z,61.77
2018-03-31T15:20:18.989Z,61.60
2018-03-31T15:22:45.541Z,43.20
2018-03-31T15:25:12.123Z,63.13
2018-03-31T15:27:38.661Z,43.40
2018-03-31T15:30:05.269Z,51.27
2018-03-31T15:32:31.793Z,58.60
2018-03-31T15:34:58.376Z,63.53
2018-03-31T15:37:24.912Z,38.17
2018-03-31T15:39:51.532Z,36.40
2018-03-31T15:42:18.065Z,42.07
2018-03-31T15:44:44.618Z,59.17
2018-03-31T15:47:11.182Z,46.17
2018-03-31T15:49:37.737Z,45.10
2018-03-31T15:52:04.289Z,173.10
2018-03-31T15:54:30.800Z,60.00
2018-03-31T15:56:57.343Z,46.93
2018-03-31T15:59:23.876Z,172.43
2018-03-31T16:01:50.463Z,46.23
2018-03-31T16:04:17.043Z,45.23
2018-03-31T16:06:43.550Z,45.53
2018-03-31T16:09:10.069Z,47.77
2018-03-31T16:11:36.665Z,48.67
2018-03-31T16:14:03.266Z,49.87
2018-03-31T16:16:29.819Z,55.20
2018-03-31T16:18:56.422Z,52.00
2018-03-31T16:21:23.817Z,44.43
2018-03-31T16:23:50.446Z,48.43
2018-03-31T16:26:17.024Z,51.23
2018-03-31T16:28:43.606Z,52.63
2018-03-31T16:31:10.198Z,43.17
2018-03-31T16:33:36.764Z,45.20
2018-03-31T16:36:03.304Z,45.80
2018-03-31T16:38:29.854Z,43.97
2018-03-31T16:40:56.381Z,44.53
2018-03-31T16:43:22.930Z,41.83
2018-03-31T16:45:49.508Z,52.07
2018-03-31T16:48:16.057Z,51.30
2018-03-31T16:50:42.633Z,53.80
2018-03-31T16:53:09.184Z,51.77
2018-03-31T16:55:35.725Z,49.07
2018-03-31T16:58:02.316Z,47.97
2018-03-31T17:00:28.954Z,44.63
2018-03-31T17:02:55.533Z,47.03
2018-03-31T17:05:22.135Z,50.63
2018-03-31T17:07:48.704Z,54.53
2018-03-31T17:10:15.245Z,56.90
2018-03-31T17:12:41.794Z,53.60
2018-03-31T17:15:08.307Z,55.40
2018-03-31T17:17:34.856Z,50.63
2018-03-31T17:20:01.418Z,50.77
2018-03-31T17:22:28.090Z,50.43
2018-03-31T17:24:54.626Z,48.43
2018-03-31T17:27:21.198Z,43.50
2018-03-31T17:29:47.750Z,43.20
2018-03-31T17:32:14.290Z,42.23
2018-03-31T17:34:40.841Z,48.17
2018-03-31T17:37:07.397Z,46.20
2018-03-31T17:39:33.904Z,41.20
2018-03-31T17:42:00.441Z,44.73
2018-03-31T17:44:26.968Z,43.53
2018-03-31T17:46:53.539Z,37.33
2018-03-31T17:49:20.101Z,46.47
2018-03-31T17:51:46.794Z,46.30
2018-03-31T17:54:13.340Z,44.67
2018-03-31T17:56:39.891Z,49.13
2018-03-31T18:02:07.988Z,49.80
2018-03-31T18:04:34.519Z,52.47
2018-03-31T18:07:01.135Z,53.37
2018-03-31T18:09:27.719Z,58.87
2018-03-31T18:11:54.297Z,59.23
2018-03-31T18:19:38.237Z,59.70
2018-03-31T18:22:04.804Z,52.17
2018-03-31T18:24:31.314Z,46.63
2018-03-31T18:26:57.839Z,38.83
2018-03-31T18:29:24.380Z,47.00
2018-03-31T18:31:50.942Z,46.03
2018-03-31T18:34:17.581Z,47.23
2018-03-31T18:36:44.220Z,34.13
2018-03-31T18:39:10.769Z,32.97
2018-03-31T18:41:37.381Z,43.60
2018-03-31T18:44:03.948Z,43.13
2018-03-31T18:46:30.472Z,38.97
2018-03-31T18:48:57.006Z,28.37
2018-03-31T18:51:23.552Z,46.37
2018-03-31T18:53:50.102Z,36.43
2018-03-31T18:56:16.706Z,46.70
2018-03-31T18:58:43.256Z,27.17
2018-03-31T19:01:09.824Z,52.87
2018-03-31T19:03:36.437Z,46.83
2018-03-31T19:06:03.000Z,53.53
2018-03-31T19:08:29.681Z,52.90
2018-03-31T19:10:56.343Z,48.93
2018-03-31T19:13:22.940Z,52.47
2018-03-31T19:15:49.540Z,56.00
2018-03-31T19:18:16.081Z,51.07
2018-03-31T19:20:42.592Z,56.87
2018-03-31T19:23:09.179Z,45.27
2018-03-31T19:25:35.749Z,49.03
2018-03-31T19:28:02.330Z,44.70
2018-03-31T19:30:34.840Z,52.60
2018-03-31T19:33:01.393Z,43.93
2018-03-31T19:35:28.048Z,50.40
2018-03-31T19:37:54.568Z,52.50
2018-03-31T19:40:21.216Z,51.13
2018-03-31T19:42:47.829Z,53.70
2018-03-31T19:45:14.533Z,39.13
2018-03-31T19:47:41.251Z,32.93
2018-03-31T19:50:07.830Z,37.43
2018-03-31T19:52:34.468Z,57.90
2018-03-31T19:55:01.129Z,56.40
2018-03-31T19:57:27.707Z,57.50
2018-03-31T19:59:54.267Z,49.33
2018-03-31T20:02:20.844Z,53.00
2018-03-31T20:04:47.380Z,59.17
2018-03-31T20:07:13.998Z,53.60
2018-03-31T20:09:40.535Z,45.07
2018-03-31T20:12:07.080Z,39.90
2018-03-31T20:14:33.739Z,55.73
2018-03-31T20:17:00.315Z,41.27
2018-03-31T20:19:26.969Z,16.87
2018-03-31T20:21:53.598Z,19.13
2018-03-31T20:24:20.143Z,28.13
2018-03-31T20:26:46.725Z,18.33
2018-03-31T20:29:13.285Z,28.47
2018-03-31T20:31:39.860Z,23.13
2018-03-31T20:34:06.451Z,15.90
2018-03-31T20:36:33.005Z,16.97
2018-03-31T20:38:59.541Z,22.97
2018-03-31T20:41:26.063Z,25.00
2018-03-31T20:43:52.617Z,21.97
2018-03-31T20:46:20.186Z,21.20
2018-03-31T20:48:46.799Z,18.57
2018-03-31T20:51:14.078Z,20.23
2018-03-31T20:53:40.627Z,20.63
2018-03-31T20:56:07.168Z,10.27
2018-03-31T20:58:33.708Z,12.83
2018-03-31T21:01:00.262Z,18.20
2018-03-31T21:03:26.818Z,12.70
2018-03-31T21:05:53.357Z,14.90
2018-03-31T21:08:19.920Z,16.83
2018-03-31T21:10:47.531Z,16.57
2018-03-31T21:13:14.153Z,20.00
2018-03-31T21:15:40.744Z,12.00
2018-03-31T21:18:07.272Z,14.50
2018-03-31T21:20:33.796Z,14.13
2018-03-31T21:23:00.444Z,12.80
2018-03-31T21:25:26.981Z,17.87
2018-03-31T21:27:53.644Z,13.53
2018-03-31T21:30:22.131Z,17.47
2018-03-31T21:32:48.697Z,23.37
2018-03-31T21:35:15.282Z,23.53
2018-03-31T21:37:41.830Z,16.80
2018-03-31T21:40:08.377Z,19.00
2018-03-31T21:42:34.928Z,17.93
2018-03-31T21:45:01.474Z,21.53
2018-03-31T21:47:28.074Z,25.43
2018-03-31T21:49:54.615Z,18.47
2018-03-31T21:52:21.212Z,26.27
2018-03-31T21:54:47.787Z,21.57
2018-03-31T21:57:14.372Z,24.70
2018-03-31T21:59:40.931Z,13.43
2018-03-31T22:02:07.578Z,21.43
2018-03-31T22:04:34.151Z,18.57
2018-03-31T22:07:00.722Z,17.43
2018-03-31T22:09:27.304Z,25.13
2018-03-31T22:11:53.893Z,17.13
2018-03-31T22:14:26.300Z,12.60
2018-03-31T22:16:52.990Z,21.17
2018-03-31T22:19:19.589Z,23.23
2018-03-31T22:21:46.139Z,23.33
2018-03-31T22:24:12.717Z,19.57
2018-03-31T22:26:40.105Z,13.73
2018-03-31T22:29:06.708Z,23.00
2018-03-31T22:31:33.325Z,24.93
2018-03-31T22:33:59.899Z,13.63
2018-03-31T22:36:26.464Z,11.37
2018-03-31T22:38:58.674Z,13.50
2018-03-31T22:41:25.287Z,18.30
2018-03-31T22:43:52.015Z,17.10
2018-03-31T22:46:18.596Z,21.57
2018-03-31T22:48:45.171Z,10.87
2018-03-31T22:51:11.700Z,12.83
2018-03-31T22:53:38.239Z,14.10
2018-03-31T22:56:04.820Z,9.23
2018-03-31T22:58:32.284Z,13.57
2018-03-31T23:00:58.812Z,11.20
2018-03-31T23:03:25.319Z,14.10
2018-03-31T23:05:51.832Z,15.63
2018-03-31T23:08:18.393Z,13.07
2018-03-31T23:10:44.937Z,7.47
2018-03-31T23:13:11.471Z,8.83
2018-03-31T23:15:38.029Z,12.30
2018-03-31T23:18:05.138Z,6.63
2018-03-31T23:20:31.666Z,9.23
2018-03-31T23:22:58.230Z,9.67
2018-03-31T23:25:24.752Z,9.93
2018-03-31T23:27:51.286Z,7.40
2018-03-31T23:30:17.855Z,10.73
2018-03-31T23:32:44.453Z,8.93
2018-03-31T23:35:11.084Z,11.20
2018-03-31T23:37:37.639Z,9.20
2018-03-31T23:40:04.166Z,8.43
2018-03-31T23:42:30.716Z,8.03
2018-03-31T23:44:57.306Z,11.97
2018-03-31T23:47:23.922Z,14.77
2018-03-31T23:49:50.507Z,16.23
2018-03-31T23:52:17.132Z,8.60
2018-03-31T23:54:43.928Z,12.57
2018-03-31T23:57:10.473Z,8.20
2018-03-31T23:59:37.024Z,9.37
